createdAt,value
2022-09-23T00:02:40.069Z,10.75
2022-09-23T00:05:43.219Z,10.69
2022-09-23T00:08:47.546Z,10.68
2022-09-23T00:11:50.231Z,10.64
2022-09-23T00:14:52.411Z,10.63
2022-09-23T00:17:55.100Z,10.72
2022-09-23T00:20:57.307Z,10.63
2022-09-23T00:24:00.261Z,10.63
2022-09-23T00:27:02.564Z,10.63
2022-09-23T00:30:07.131Z,10.61
2022-09-23T00:33:09.317Z,10.59
2022-09-23T00:36:16.105Z,10.56
2022-09-23T00:39:18.356Z,10.56
2022-09-23T00:42:22.811Z,10.53
2022-09-23T00:45:25.056Z,10.51
2022-09-23T00:48:28.118Z,10.48
2022-09-23T00:51:34.526Z,10.45
2022-09-23T00:54:37.583Z,10.42
2022-09-23T00:57:42.107Z,10.38
2022-09-23T01:00:46.464Z,10.35
2022-09-23T01:03:49.236Z,10.43
2022-09-23T01:06:52.155Z,10.39
2022-09-23T01:09:54.703Z,10.36
2022-09-23T01:13:03.503Z,10.26
2022-09-23T01:16:08.735Z,10.23
2022-09-23T01:19:31.929Z,10.18
2022-09-23T01:22:34.085Z,10.12
2022-09-23T01:25:36.920Z,10.17
2022-09-23T01:29:03.930Z,10.10
2022-09-23T01:32:12.899Z,10.08
2022-09-23T01:35:15.079Z,9.98
2022-09-23T01:38:37.301Z,9.92
2022-09-23T01:41:40.071Z,9.89
2022-09-23T01:44:53.211Z,9.90
2022-09-23T01:48:02.028Z,9.86
2022-09-23T01:51:08.503Z,9.86
2022-09-23T01:54:15.889Z,9.78
2022-09-23T01:57:22.859Z,9.80
2022-09-23T02:00:27.039Z,9.76
2022-09-23T02:03:44.989Z,9.77
2022-09-23T02:06:51.552Z,9.73
2022-09-23T02:09:57.882Z,9.70
2022-09-23T02:13:05.349Z,9.70
2022-09-23T02:16:11.707Z,9.70
2022-09-23T02:19:16.772Z,9.64
2022-09-23T02:22:34.550Z,9.61
2022-09-23T02:25:49.057Z,9.56
2022-09-23T02:28:56.788Z,9.51
2022-09-23T02:32:04.621Z,9.45
2022-09-23T02:35:25.621Z,9.50
2022-09-23T02:38:33.984Z,9.48
2022-09-23T02:41:44.686Z,9.45
2022-09-23T02:44:46.987Z,9.39
2022-09-23T02:47:53.508Z,9.40
2022-09-23T02:50:55.754Z,9.38
2022-09-23T02:53:58.783Z,9.35
2022-09-23T02:57:02.820Z,9.34
2022-09-23T03:00:06.427Z,9.34
2022-09-23T03:03:38.105Z,9.32
2022-09-23T03:06:47.177Z,9.27
2022-09-23T03:09:49.426Z,9.21
2022-09-23T03:13:11.251Z,9.18
2022-09-23T03:16:22.713Z,9.17
2022-09-23T03:19:30.289Z,9.12
2022-09-23T03:22:35.459Z,9.08
2022-09-23T03:25:39.819Z,9.11
2022-09-23T03:28:43.955Z,9.09
2022-09-23T03:31:47.107Z,9.05
2022-09-23T03:34:51.506Z,9.10
2022-09-23T03:37:59.621Z,9.16
2022-09-23T03:41:04.249Z,9.19
2022-09-23T03:44:08.155Z,9.17
2022-09-23T03:47:10.815Z,9.15
2022-09-23T03:50:13.978Z,9.12
2022-09-23T03:53:18.410Z,9.13
2022-09-23T03:56:21.057Z,9.06
2022-09-23T03:59:23.823Z,9.01
2022-09-23T04:02:26.938Z,9.01
2022-09-23T04:05:29.467Z,9.00
2022-09-23T04:08:31.934Z,9.01
2022-09-23T04:11:35.263Z,8.98
2022-09-23T04:14:37.928Z,9.02
2022-09-23T04:17:40.407Z,9.03
2022-09-23T04:20:42.858Z,8.98
2022-09-23T04:23:46.562Z,8.99
2022-09-23T04:26:53.451Z,8.97
2022-09-23T04:29:55.957Z,9.06
2022-09-23T04:32:58.328Z,9.08
2022-09-23T04:36:00.893Z,9.11
2022-09-23T04:39:03.536Z,9.22
2022-09-23T04:42:06.107Z,9.16
2022-09-23T04:45:08.817Z,9.15
2022-09-23T04:48:11.543Z,9.11
2022-09-23T04:51:16.060Z,9.13
2022-09-23T04:54:19.011Z,9.11
2022-09-23T04:57:21.431Z,9.18
2022-09-23T05:00:24.207Z,9.23
2022-09-23T05:03:26.623Z,9.21
2022-09-23T05:06:35.308Z,9.31
2022-09-23T05:09:38.552Z,9.34
2022-09-23T05:12:41.434Z,9.39
2022-09-23T05:15:43.979Z,9.37
2022-09-23T05:18:46.967Z,9.38
2022-09-23T05:21:49.454Z,9.41
2022-09-23T05:24:52.574Z,9.48
2022-09-23T05:27:55.086Z,9.57
2022-09-23T05:31:05.440Z,9.71
2022-09-23T05:34:08.062Z,9.73
2022-09-23T05:37:10.616Z,9.81
2022-09-23T05:40:13.129Z,9.76
2022-09-23T05:43:15.908Z,9.77
2022-09-23T05:46:23.406Z,9.85
2022-09-23T05:49:37.913Z,9.93
2022-09-23T05:52:48.595Z,10.00
2022-09-23T05:55:51.905Z,10.10
2022-09-23T05:58:55.581Z,10.15
2022-09-23T06:01:58.336Z,10.23
2022-09-23T06:05:01.078Z,10.43
2022-09-23T06:08:03.465Z,10.60
2022-09-23T06:11:07.741Z,10.73
2022-09-23T06:14:14.596Z,10.77
2022-09-23T06:17:17.346Z,10.90
2022-09-23T06:20:19.563Z,10.94
2022-09-23T06:23:25.627Z,11.07
2022-09-23T06:26:32.605Z,11.25
2022-09-23T06:29:37.578Z,11.36
2022-09-23T06:32:39.956Z,11.49
2022-09-23T06:35:55.339Z,11.51
2022-09-23T06:38:59.221Z,11.75
2022-09-23T06:42:01.999Z,11.94
2022-09-23T06:45:04.387Z,12.03
2022-09-23T06:48:09.502Z,12.32
2022-09-23T06:51:23.131Z,12.45
2022-09-23T06:54:28.426Z,12.62
2022-09-23T06:57:31.102Z,12.89
2022-09-23T07:00:33.839Z,13.04
2022-09-23T07:03:36.439Z,13.31
2022-09-23T07:06:39.249Z,13.62
2022-09-23T07:09:41.718Z,13.93
2022-09-23T07:12:44.652Z,14.21
2022-09-23T07:15:53.921Z,14.53
2022-09-23T07:18:57.126Z,14.91
2022-09-23T07:21:59.331Z,15.29
2022-09-23T07:25:02.003Z,15.68
2022-09-23T07:28:04.891Z,16.18
2022-09-23T07:31:09.892Z,16.78
2022-09-23T07:34:12.236Z,17.29
2022-09-23T07:37:15.525Z,17.79
2022-09-23T07:40:17.763Z,18.23
2022-09-23T07:43:20.590Z,18.67
2022-09-23T07:46:22.904Z,20.40
2022-09-23T07:49:25.932Z,27.11
2022-09-23T07:52:28.166Z,32.95
2022-09-23T07:55:30.864Z,36.69
2022-09-23T07:58:33.971Z,38.48
2022-09-23T08:01:41.279Z,39.06
2022-09-23T08:04:44.136Z,37.44
2022-09-23T08:07:46.515Z,35.49
2022-09-23T08:10:49.099Z,33.20
2022-09-23T08:13:51.631Z,30.65
2022-09-23T08:16:54.243Z,29.24
2022-09-23T08:19:56.660Z,28.24
2022-09-23T08:22:59.457Z,27.70
2022-09-23T08:26:05.391Z,27.16
2022-09-23T08:29:10.140Z,27.09
2022-09-23T08:32:12.629Z,27.10
2022-09-23T08:35:15.516Z,26.98
2022-09-23T08:38:18.031Z,26.78
2022-09-23T08:41:26.569Z,26.87
2022-09-23T08:44:32.436Z,27.03
2022-09-23T08:47:47.257Z,27.07
2022-09-23T08:50:53.697Z,26.87
2022-09-23T08:53:56.332Z,27.04
2022-09-23T08:56:59.785Z,26.82
2022-09-23T09:00:05.870Z,26.91
2022-09-23T09:03:24.938Z,27.32
2022-09-23T09:06:51.718Z,27.81
2022-09-23T09:10:16.670Z,28.15
2022-09-23T09:13:43.329Z,28.56
2022-09-23T09:16:59.498Z,28.85
2022-09-23T09:20:03.538Z,28.23
2022-09-23T09:23:21.472Z,27.29
2022-09-23T09:26:25.394Z,26.90
2022-09-23T09:29:35.337Z,27.35
2022-09-23T09:32:48.397Z,27.90
2022-09-23T09:36:04.036Z,28.67
2022-09-23T09:39:11.361Z,29.15
2022-09-23T09:42:18.626Z,29.55
2022-09-23T09:45:21.246Z,30.01
2022-09-23T09:48:27.960Z,30.46
2022-09-23T09:51:30.513Z,30.75
2022-09-23T09:54:32.927Z,30.64
2022-09-23T09:57:46.084Z,30.59
2022-09-23T10:00:50.612Z,30.20
2022-09-23T10:03:59.226Z,29.96
2022-09-23T10:07:08.360Z,29.82
2022-09-23T10:10:31.770Z,29.80
2022-09-23T10:13:36.246Z,29.28
2022-09-23T10:16:41.500Z,28.37
2022-09-23T10:19:45.767Z,26.36
2022-09-23T10:22:48.685Z,26.23
2022-09-23T10:26:01.409Z,26.89
2022-09-23T10:29:19.421Z,27.97
2022-09-23T10:32:37.401Z,28.15
2022-09-23T10:35:53.793Z,28.74
2022-09-23T10:39:18.816Z,27.71
2022-09-23T10:42:45.149Z,26.84
2022-09-23T10:49:44.985Z,25.88
2022-09-23T10:52:47.390Z,25.08
2022-09-23T10:56:01.680Z,24.89
2022-09-23T10:59:10.342Z,25.07
2022-09-23T11:02:18.883Z,25.00
2022-09-23T11:05:30.720Z,25.97
2022-09-23T11:08:36.407Z,26.48
2022-09-23T11:11:41.900Z,26.69
2022-09-23T11:14:48.783Z,25.98
2022-09-23T11:18:03.167Z,26.10
2022-09-23T11:21:21.064Z,25.42
2022-09-23T11:24:29.566Z,24.82
2022-09-23T11:27:47.369Z,25.27
2022-09-23T11:31:14.580Z,24.57
2022-09-23T11:34:38.757Z,24.82
2022-09-23T11:37:45.191Z,24.55
2022-09-23T11:40:54.757Z,23.25
2022-09-23T11:44:16.243Z,22.62
2022-09-23T11:47:22.289Z,23.13
2022-09-23T11:50:37.016Z,22.62
2022-09-23T11:53:47.680Z,23.41
2022-09-23T11:56:52.020Z,24.72
2022-09-23T12:00:00.623Z,24.51
2022-09-23T12:03:32.949Z,24.47
2022-09-23T12:06:47.751Z,23.78
2022-09-23T12:10:00.404Z,23.17
2022-09-23T12:13:19.355Z,24.02
2022-09-23T12:16:41.087Z,23.73
2022-09-23T12:19:58.812Z,24.13
2022-09-23T12:23:13.315Z,25.43
2022-09-23T12:26:18.247Z,25.14
2022-09-23T12:29:21.063Z,23.76
2022-09-23T12:32:25.053Z,24.46
2022-09-23T12:35:35.578Z,24.56
2022-09-23T12:38:40.491Z,25.01
2022-09-23T12:41:46.332Z,25.43
2022-09-23T12:44:49.213Z,25.11
2022-09-23T12:47:51.665Z,25.52
2022-09-23T12:50:58.400Z,26.10
2022-09-23T12:54:03.807Z,26.66
2022-09-23T12:57:26.603Z,27.15
2022-09-23T13:00:34.079Z,27.54
2022-09-23T13:04:00.524Z,24.92
2022-09-23T13:07:07.821Z,23.89
2022-09-23T13:10:18.820Z,24.36
2022-09-23T13:13:44.895Z,24.53
2022-09-23T13:16:47.812Z,24.17
2022-09-23T13:19:59.046Z,23.27
2022-09-23T13:23:06.091Z,23.00
2022-09-23T13:26:13.571Z,22.70
2022-09-23T13:29:20.355Z,22.15
2022-09-23T13:32:25.827Z,21.75
2022-09-23T13:35:39.772Z,21.05
2022-09-23T13:38:42.337Z,20.62
2022-09-23T13:41:45.435Z,20.28
2022-09-23T13:44:48.246Z,19.89
2022-09-23T13:47:52.694Z,19.51
2022-09-23T13:50:55.412Z,19.41
2022-09-23T13:53:59.372Z,19.40
2022-09-23T13:57:02.563Z,19.27
2022-09-23T14:00:21.363Z,18.88
2022-09-23T14:03:37.237Z,18.92
2022-09-23T14:06:41.009Z,19.31
2022-09-23T14:09:45.007Z,19.88
2022-09-23T14:12:50.475Z,20.33
2022-09-23T14:15:57.592Z,20.68
2022-09-23T14:19:10.117Z,20.95
2022-09-23T14:22:26.504Z,20.90
2022-09-23T14:25:30.853Z,20.65
2022-09-23T14:28:33.684Z,20.40
2022-09-23T14:31:36.001Z,20.00
2022-09-23T14:34:44.932Z,19.64
2022-09-23T14:38:16.684Z,19.48
2022-09-23T14:41:28.393Z,19.18
2022-09-23T14:44:33.303Z,18.78
2022-09-23T14:47:36.036Z,18.77
2022-09-23T14:50:48.153Z,18.82
2022-09-23T14:53:50.955Z,18.81
2022-09-23T14:56:54.114Z,18.78
2022-09-23T15:00:20.153Z,18.68
2022-09-23T15:03:23.091Z,18.66
2022-09-23T15:06:26.423Z,18.54
2022-09-23T15:09:33.437Z,18.36
2022-09-23T15:12:36.484Z,18.42
2022-09-23T15:15:39.240Z,18.46
2022-09-23T15:18:46.112Z,18.54
2022-09-23T15:21:51.536Z,18.54
2022-09-23T15:24:55.173Z,18.57
2022-09-23T15:28:12.802Z,18.52
2022-09-23T15:31:16.779Z,18.30
2022-09-23T15:34:20.983Z,18.41
2022-09-23T15:37:23.684Z,18.37
2022-09-23T15:40:27.546Z,18.36
2022-09-23T15:43:30.397Z,18.35
2022-09-23T15:46:33.691Z,18.36
2022-09-23T15:49:39.073Z,18.38
2022-09-23T15:52:44.989Z,18.27
2022-09-23T15:55:50.231Z,18.35
2022-09-23T15:58:52.875Z,18.28
2022-09-23T16:01:56.970Z,18.09
2022-09-23T16:05:05.803Z,18.02
2022-09-23T16:08:09.743Z,17.90
2022-09-23T16:11:20.225Z,17.87
2022-09-23T16:14:22.700Z,17.86
2022-09-23T16:17:25.237Z,17.87
2022-09-23T16:20:29.771Z,17.88
2022-09-23T16:23:34.734Z,17.90
2022-09-23T16:26:39.677Z,17.87
2022-09-23T16:29:42.181Z,17.83
2022-09-23T16:32:44.604Z,17.83
2022-09-23T16:35:47.372Z,17.78
2022-09-23T16:38:49.809Z,17.76
2022-09-23T16:41:52.723Z,17.76
2022-09-23T16:44:55.132Z,17.69
2022-09-23T16:47:57.824Z,17.76
2022-09-23T16:51:04.477Z,17.56
2022-09-23T16:54:10.288Z,17.45
2022-09-23T16:57:13.342Z,17.42
2022-09-23T17:00:35.106Z,17.33
2022-09-23T17:03:40.927Z,17.33
2022-09-23T17:06:44.417Z,17.30
2022-09-23T17:09:46.847Z,17.26
2022-09-23T17:12:50.628Z,17.20
2022-09-23T17:15:53.694Z,17.17
2022-09-23T17:18:56.769Z,17.08
2022-09-23T17:21:59.348Z,16.97
2022-09-23T17:25:04.224Z,16.84
2022-09-23T17:28:06.664Z,16.70
2022-09-23T17:31:09.690Z,16.58
2022-09-23T17:34:12.273Z,16.46
2022-09-23T17:37:14.813Z,16.35
2022-09-23T17:40:18.802Z,16.24
2022-09-23T17:43:25.063Z,16.17
2022-09-23T17:46:30.943Z,16.08
2022-09-23T17:49:35.492Z,16.00
2022-09-23T17:52:37.992Z,15.93
2022-09-23T17:55:40.976Z,15.84
2022-09-23T17:58:44.135Z,15.72
2022-09-23T18:01:46.674Z,15.63
2022-09-23T18:04:49.764Z,15.57
2022-09-23T18:07:51.984Z,15.50
2022-09-23T18:10:54.670Z,15.40
2022-09-23T18:14:01.114Z,15.34
2022-09-23T18:17:03.858Z,15.27
2022-09-23T18:20:06.468Z,15.23
2022-09-23T18:23:09.226Z,15.17
2022-09-23T18:26:18.685Z,15.12
2022-09-23T18:29:21.455Z,15.03
2022-09-23T18:32:23.691Z,14.97
2022-09-23T18:35:26.533Z,14.93
2022-09-23T18:38:28.836Z,14.87
2022-09-23T18:41:31.644Z,14.79
2022-09-23T18:44:33.950Z,14.73
2022-09-23T18:47:56.416Z,14.74
2022-09-23T18:50:58.816Z,14.66
2022-09-23T18:54:02.449Z,14.55
2022-09-23T18:57:05.220Z,14.46
2022-09-23T19:00:09.491Z,14.39
2022-09-23T19:03:11.837Z,14.35
2022-09-23T19:06:20.539Z,14.31
2022-09-23T19:09:23.893Z,14.24
2022-09-23T19:12:26.690Z,14.22
2022-09-23T19:15:29.040Z,14.19
2022-09-23T19:18:32.665Z,14.08
2022-09-23T19:21:35.198Z,14.05
2022-09-23T19:24:38.119Z,14.04
2022-09-23T19:27:40.495Z,14.04
2022-09-23T19:30:43.492Z,14.02
2022-09-23T19:33:53.198Z,13.98
2022-09-23T19:36:59.064Z,13.92
2022-09-23T19:40:01.618Z,13.85
2022-09-23T19:43:05.542Z,13.79
2022-09-23T19:46:09.241Z,13.71
2022-09-23T19:49:13.920Z,13.69
2022-09-23T19:52:16.703Z,13.61
2022-09-23T19:55:20.052Z,13.57
2022-09-23T19:58:23.185Z,13.50
2022-09-23T20:01:26.854Z,13.49
2022-09-23T20:04:29.354Z,13.47
2022-09-23T20:07:31.973Z,13.42
2022-09-23T20:10:34.569Z,13.35
2022-09-23T20:13:37.746Z,13.34
2022-09-23T20:16:40.530Z,13.30
2022-09-23T20:19:44.540Z,13.31
2022-09-23T20:22:48.223Z,13.25
2022-09-23T20:26:18.716Z,13.19
2022-09-23T20:29:21.400Z,13.15
2022-09-23T20:32:25.580Z,13.14
2022-09-23T20:35:33.192Z,13.10
2022-09-23T20:38:36.210Z,13.04
2022-09-23T20:41:40.036Z,13.02
2022-09-23T20:44:44.109Z,12.93
2022-09-23T20:47:46.645Z,12.92
2022-09-23T20:50:51.253Z,12.92
2022-09-23T20:53:53.765Z,12.84
2022-09-23T20:56:56.361Z,12.80
2022-09-23T20:59:58.876Z,12.75
2022-09-23T21:03:02.670Z,12.68
2022-09-23T21:06:06.528Z,12.62
2022-09-23T21:09:09.060Z,12.57
2022-09-23T21:12:11.651Z,12.52
2022-09-23T21:15:14.372Z,12.54
2022-09-23T21:18:21.742Z,12.48
2022-09-23T21:21:25.426Z,12.41
2022-09-23T21:27:52.253Z,12.58
2022-09-23T21:30:57.652Z,12.41
2022-09-23T21:34:04.277Z,12.31
2022-09-23T21:37:07.139Z,12.27
2022-09-23T21:40:28.547Z,12.23
2022-09-23T21:43:33.269Z,12.22
2022-09-23T21:46:35.911Z,12.16
2022-09-23T21:49:38.574Z,12.07
2022-09-23T21:52:40.991Z,12.00
2022-09-23T21:55:43.477Z,11.94
2022-09-23T21:58:46.315Z,11.91
2022-09-23T22:01:53.965Z,11.87
2022-09-23T22:04:57.224Z,11.82
2022-09-23T22:07:59.480Z,11.82
2022-09-23T22:11:06.650Z,11.81
2022-09-23T22:14:10.401Z,11.78
2022-09-23T22:17:14.547Z,11.70
2022-09-23T22:20:17.035Z,11.62
2022-09-23T22:23:20.268Z,11.59
2022-09-23T22:26:23.242Z,11.57
2022-09-23T22:29:44.595Z,11.53
2022-09-23T22:32:54.331Z,11.49
2022-09-23T22:36:01.789Z,11.47
2022-09-23T22:39:05.192Z,11.41
2022-09-23T22:42:08.348Z,11.39
2022-09-23T22:45:11.953Z,11.43
2022-09-23T22:48:14.753Z,11.34
2022-09-23T22:51:16.928Z,11.26
2022-09-23T22:54:20.975Z,11.21
2022-09-23T22:57:23.380Z,11.18
2022-09-23T23:00:27.937Z,11.15
2022-09-23T23:03:33.044Z,11.10
2022-09-23T23:06:36.353Z,11.07
2022-09-23T23:09:39.219Z,11.10
2022-09-23T23:12:41.906Z,11.11
2022-09-23T23:15:44.186Z,11.08
2022-09-23T23:18:47.706Z,11.05
2022-09-23T23:21:50.755Z,10.99
2022-09-23T23:24:54.658Z,10.97
2022-09-23T23:27:56.948Z,10.89
2022-09-23T23:31:03.540Z,10.80
2022-09-23T23:34:07.315Z,10.80
2022-09-23T23:37:10.087Z,10.77
2022-09-23T23:40:12.326Z,10.73
2022-09-23T23:43:15.073Z,10.68
2022-09-23T23:46:18.145Z,10.63
2022-09-23T23:49:21.521Z,10.57
2022-09-23T23:52:24.869Z,10.61
2022-09-23T23:55:27.543Z,10.56
2022-09-23T23:58:29.930Z,10.52
